createdAt,value
2022-07-28T00:03:03.570Z,5.38
2022-07-28T00:08:05.464Z,2.65
2022-07-28T00:13:07.150Z,12.43
2022-07-28T00:18:08.656Z,5.72
2022-07-28T00:23:10.102Z,8.02
2022-07-28T00:28:11.552Z,4.18
2022-07-28T00:33:13.058Z,5.18
2022-07-28T00:38:14.510Z,6.05
2022-07-28T00:43:17.001Z,6.10
2022-07-28T00:48:18.552Z,7.55
2022-07-28T00:53:20.836Z,7.82
2022-07-28T00:58:22.789Z,5.85
2022-07-28T01:03:25.605Z,7.63
2022-07-28T01:08:53.498Z,7.55
2022-07-28T01:14:10.927Z,8.30
2022-07-28T01:19:30.949Z,6.75
2022-07-28T01:24:49.691Z,10.18
2022-07-28T01:30:05.377Z,7.85
2022-07-28T01:35:26.848Z,6.45
2022-07-28T01:40:33.302Z,9.07
2022-07-28T01:45:38.063Z,6.97
2022-07-28T01:50:42.149Z,11.90
2022-07-28T01:55:45.250Z,9.10
2022-07-28T02:00:49.727Z,8.82
2022-07-28T02:05:54.181Z,10.43
2022-07-28T02:11:16.930Z,10.43
2022-07-28T02:16:22.389Z,9.77
2022-07-28T02:21:25.493Z,10.73
2022-07-28T02:26:36.987Z,5.85
2022-07-28T02:31:51.720Z,9.70
2022-07-28T02:36:58.030Z,12.05
2022-07-28T02:42:07.088Z,8.65
2022-07-28T02:47:12.445Z,9.68
2022-07-28T02:52:15.875Z,5.80
2022-07-28T02:57:18.747Z,9.95
2022-07-28T03:02:22.115Z,9.68
2022-07-28T03:07:23.685Z,8.32
2022-07-28T03:12:26.600Z,7.57
2022-07-28T03:17:28.054Z,5.47
2022-07-28T03:22:29.514Z,8.52
2022-07-28T03:27:40.027Z,10.30
2022-07-28T03:32:48.256Z,6.57
2022-07-28T03:37:54.933Z,10.90
2022-07-28T03:42:57.584Z,7.93
2022-07-28T03:47:59.110Z,8.32
2022-07-28T03:53:10.439Z,5.15
2022-07-28T03:58:11.923Z,9.02
2022-07-28T04:03:34.972Z,14.10
2022-07-28T04:08:35.531Z,7.03
2022-07-28T04:13:37.256Z,7.82
2022-07-28T04:18:39.514Z,11.00
2022-07-28T04:23:41.165Z,7.80
2022-07-28T04:28:45.176Z,8.07
2022-07-28T04:33:47.251Z,8.65
2022-07-28T04:38:48.778Z,7.10
2022-07-28T04:43:50.357Z,6.60
2022-07-28T04:48:51.977Z,7.45
2022-07-28T04:53:53.579Z,9.18
2022-07-28T04:58:55.081Z,4.97
2022-07-28T05:03:56.856Z,6.68
2022-07-28T05:08:58.350Z,6.95
2022-07-28T05:13:59.798Z,7.28
2022-07-28T05:19:01.544Z,8.98
2022-07-28T05:24:03.084Z,6.28
2022-07-28T05:29:04.577Z,10.35
2022-07-28T05:34:06.192Z,9.02
2022-07-28T05:39:07.728Z,7.80
2022-07-28T05:44:09.211Z,8.10
2022-07-28T05:49:10.729Z,6.90
2022-07-28T05:54:14.349Z,5.90
2022-07-28T05:59:16.013Z,6.00
2022-07-28T06:04:26.854Z,4.13
2022-07-28T06:09:30.178Z,6.75
2022-07-28T06:14:31.648Z,7.13
2022-07-28T06:19:33.174Z,3.00
2022-07-28T06:24:34.664Z,4.75
2022-07-28T06:29:36.435Z,6.57
2022-07-28T06:34:37.891Z,4.75
2022-07-28T06:39:39.359Z,5.47
2022-07-28T06:44:57.827Z,7.72
2022-07-28T06:50:01.150Z,4.00
2022-07-28T06:55:03.983Z,5.95
2022-07-28T07:00:07.878Z,5.72
2022-07-28T07:05:10.721Z,5.78
2022-07-28T07:10:12.551Z,7.03
2022-07-28T07:15:14.192Z,4.38
2022-07-28T07:20:16.543Z,4.75
2022-07-28T07:25:20.899Z,2.97
2022-07-28T07:30:22.446Z,2.83
2022-07-28T07:35:23.941Z,3.45
2022-07-28T07:40:25.393Z,4.85
2022-07-28T07:45:27.146Z,3.35
2022-07-28T07:50:29.493Z,2.90
2022-07-28T07:55:37.608Z,5.95
2022-07-28T08:05:41.000Z,3.08
2022-07-28T08:10:42.815Z,2.33
2022-07-28T08:15:44.338Z,3.20
2022-07-28T08:20:45.886Z,4.78
2022-07-28T08:25:47.454Z,3.92
2022-07-28T08:30:48.968Z,3.63
2022-07-28T08:35:50.741Z,3.47
2022-07-28T08:40:53.900Z,4.55
2022-07-28T08:45:58.517Z,2.60
2022-07-28T08:51:05.750Z,6.40
2022-07-28T08:56:12.122Z,5.05
2022-07-28T09:01:13.670Z,4.47
2022-07-28T09:06:15.189Z,4.00
2022-07-28T09:11:16.891Z,5.50
2022-07-28T09:16:18.565Z,3.40
2022-07-28T09:21:20.296Z,4.93
2022-07-28T09:26:21.785Z,4.70
2022-07-28T09:31:27.305Z,4.00
2022-07-28T09:36:40.309Z,4.43
2022-07-28T09:41:49.842Z,5.70
2022-07-28T09:46:51.516Z,3.10
2022-07-28T09:52:01.342Z,3.85
2022-07-28T09:57:03.131Z,4.53
2022-07-28T10:02:05.498Z,4.45
2022-07-28T10:07:15.721Z,3.28
2022-07-28T10:12:23.025Z,5.55
2022-07-28T10:17:30.261Z,2.93
2022-07-28T10:22:36.373Z,7.13
2022-07-28T10:27:41.689Z,5.00
2022-07-28T10:32:45.615Z,7.90
2022-07-28T10:38:04.356Z,4.95
2022-07-28T10:43:06.264Z,2.72
2022-07-28T10:48:08.733Z,3.97
2022-07-28T10:53:32.359Z,4.30
2022-07-28T10:58:36.758Z,4.50
2022-07-28T11:03:44.491Z,5.05
2022-07-28T11:08:47.694Z,6.15
2022-07-28T11:13:49.327Z,3.90
2022-07-28T11:19:36.481Z,3.80
2022-07-28T11:24:58.930Z,4.38
2022-07-28T11:30:00.427Z,4.22
2022-07-28T11:35:07.741Z,2.88
2022-07-28T11:40:30.581Z,4.47
2022-07-28T11:45:37.627Z,5.22
2022-07-28T11:50:41.793Z,3.65
2022-07-28T11:55:55.322Z,3.03
2022-07-28T12:01:19.129Z,4.43
2022-07-28T12:06:27.334Z,4.43
2022-07-28T12:11:33.307Z,7.00
2022-07-28T12:16:37.899Z,5.25
2022-07-28T12:21:52.941Z,8.23
2022-07-28T12:26:54.951Z,8.40
2022-07-28T12:32:04.831Z,8.02
2022-07-28T12:37:11.401Z,7.50
2022-07-28T12:42:13.323Z,9.65
2022-07-28T12:47:17.648Z,8.18
2022-07-28T12:52:22.292Z,5.03
2022-07-28T12:57:59.931Z,7.05
2022-07-28T13:03:24.304Z,5.33
2022-07-28T13:08:27.690Z,5.35
2022-07-28T13:13:31.112Z,8.95
2022-07-28T13:18:40.350Z,6.75
2022-07-28T13:23:41.901Z,4.40
2022-07-28T13:28:43.376Z,5.47
2022-07-28T13:33:45.436Z,5.78
2022-07-28T13:38:46.873Z,4.38
2022-07-28T13:43:49.104Z,7.03
2022-07-28T13:48:57.714Z,3.65
2022-07-28T13:54:00.660Z,3.45
2022-07-28T13:59:02.264Z,5.18
2022-07-28T14:04:04.645Z,2.78
2022-07-28T14:09:06.984Z,4.03
2022-07-28T14:14:08.466Z,3.67
2022-07-28T14:19:16.419Z,2.08
2022-07-28T14:24:24.726Z,3.47
2022-07-28T14:29:27.703Z,5.63
2022-07-28T14:34:29.189Z,3.50
2022-07-28T14:39:30.651Z,2.67
2022-07-28T14:44:32.152Z,2.72
2022-07-28T14:49:35.042Z,1.60
2022-07-28T14:54:36.551Z,2.42
2022-07-28T14:59:38.097Z,6.32
2022-07-28T15:04:39.788Z,2.30
2022-07-28T15:09:44.210Z,5.10
2022-07-28T15:14:47.694Z,1.98
2022-07-28T15:19:49.221Z,4.05
2022-07-28T15:24:50.789Z,1.65
2022-07-28T15:29:52.656Z,3.10
2022-07-28T15:34:54.140Z,2.80
2022-07-28T15:39:55.665Z,2.88
2022-07-28T15:45:01.046Z,2.53
2022-07-28T15:50:02.927Z,3.03
2022-07-28T15:55:04.905Z,2.90
2022-07-28T16:00:07.460Z,2.83
2022-07-28T16:05:09.026Z,2.28
2022-07-28T16:10:10.489Z,2.67
2022-07-28T16:15:12.550Z,5.90
2022-07-28T16:20:14.042Z,1.95
2022-07-28T16:25:20.422Z,2.75
2022-07-28T16:30:22.119Z,4.65
2022-07-28T16:35:23.800Z,5.68
2022-07-28T16:40:25.330Z,2.45
2022-07-28T16:45:30.665Z,3.03
2022-07-28T16:50:33.565Z,2.38
2022-07-28T16:55:35.157Z,1.50
2022-07-28T17:00:36.758Z,2.45
2022-07-28T17:05:38.311Z,3.10
2022-07-28T17:10:39.839Z,2.40
2022-07-28T17:15:41.483Z,2.80
2022-07-28T17:20:43.174Z,3.95
2022-07-28T17:26:20.420Z,4.03
2022-07-28T17:31:07.372Z,2.63
2022-07-28T17:36:09.133Z,4.05
2022-07-28T17:41:10.668Z,2.70
2022-07-28T17:46:12.821Z,2.90
2022-07-28T17:51:14.401Z,5.50
2022-07-28T17:56:16.161Z,3.92
2022-07-28T18:01:17.763Z,1.67
2022-07-28T18:06:19.325Z,1.75
2022-07-28T18:11:21.409Z,3.45
2022-07-28T18:16:22.996Z,2.47
2022-07-28T18:21:26.453Z,5.22
2022-07-28T18:26:27.956Z,2.53
2022-07-28T18:31:29.558Z,2.80
2022-07-28T18:36:31.820Z,5.50
2022-07-28T18:41:34.479Z,4.65
2022-07-28T18:46:48.411Z,6.05
2022-07-28T18:51:49.964Z,3.70
2022-07-28T18:56:51.429Z,3.80
2022-07-28T19:01:53.089Z,5.28
2022-07-28T19:06:54.662Z,6.95
2022-07-28T19:11:57.126Z,5.15
2022-07-28T19:16:59.053Z,4.90
2022-07-28T19:22:00.569Z,5.82
2022-07-28T19:27:05.202Z,6.75
2022-07-28T19:32:07.858Z,5.68
2022-07-28T19:37:09.650Z,5.60
2022-07-28T19:42:18.439Z,6.15
2022-07-28T19:47:19.908Z,4.35
2022-07-28T19:52:23.976Z,8.25
2022-07-28T19:57:25.778Z,7.65
2022-07-28T20:02:27.527Z,4.97
2022-07-28T20:07:29.019Z,6.72
2022-07-28T20:12:36.173Z,6.25
2022-07-28T20:17:39.890Z,9.00
2022-07-28T20:22:41.677Z,9.95
2022-07-28T20:27:43.444Z,7.72
2022-07-28T20:32:44.961Z,9.18
2022-07-28T20:37:46.431Z,11.20
2022-07-28T20:42:52.853Z,4.40
2022-07-28T20:47:54.773Z,5.82
2022-07-28T20:52:56.216Z,8.93
2022-07-28T20:57:57.751Z,6.22
2022-07-28T21:02:59.307Z,6.55
2022-07-28T21:08:06.216Z,5.93
2022-07-28T21:13:10.937Z,9.77
2022-07-28T21:18:12.439Z,8.00
2022-07-28T21:23:13.905Z,8.15
2022-07-28T21:28:33.972Z,9.02
2022-07-28T21:33:35.475Z,9.98
2022-07-28T21:38:37.492Z,5.07
2022-07-28T21:43:39.051Z,11.27
2022-07-28T21:48:40.585Z,9.68
2022-07-28T21:53:45.090Z,13.70
2022-07-28T21:58:47.386Z,10.90
2022-07-28T22:03:48.884Z,7.15
2022-07-28T22:08:53.494Z,7.05
2022-07-28T22:13:55.186Z,6.90
2022-07-28T22:18:56.744Z,5.18
2022-07-28T22:23:58.221Z,6.93
2022-07-28T22:28:59.668Z,4.88
2022-07-28T22:34:01.195Z,8.32
2022-07-28T22:39:02.659Z,8.75
2022-07-28T22:44:04.424Z,6.93
2022-07-28T22:49:07.562Z,6.95
2022-07-28T22:54:09.123Z,7.50
2022-07-28T22:59:11.080Z,9.25
2022-07-28T23:04:16.202Z,6.15
2022-07-28T23:09:18.112Z,8.45
2022-07-28T23:14:19.557Z,7.38
2022-07-28T23:19:21.092Z,7.07
2022-07-28T23:24:23.601Z,6.43
2022-07-28T23:29:25.071Z,6.63
2022-07-28T23:34:26.571Z,6.30
2022-07-28T23:39:31.115Z,4.63
2022-07-28T23:44:32.622Z,5.93
2022-07-28T23:49:34.115Z,8.93
2022-07-28T23:54:35.586Z,8.70
2022-07-28T23:59:37.120Z,5.35
